createdAt,value
2023-05-10T00:01:05.792Z,100418.81
2023-05-10T00:04:08.865Z,100421.91
2023-05-10T00:07:11.761Z,100419.09
2023-05-10T00:10:14.989Z,100413.50
2023-05-10T00:13:18.157Z,100404.69
2023-05-10T00:16:21.240Z,100408.31
2023-05-10T00:19:24.579Z,100410.22
2023-05-10T00:22:27.683Z,100406.22
2023-05-10T00:25:30.383Z,100403.00
2023-05-10T00:28:33.377Z,100403.00
2023-05-10T00:31:36.294Z,100408.12
2023-05-10T00:34:39.439Z,100396.59
2023-05-10T00:37:42.174Z,100394.16
2023-05-10T00:40:45.234Z,100396.13
2023-05-10T00:43:49.743Z,100398.91
2023-05-10T00:46:53.739Z,100403.22
2023-05-10T00:49:57.053Z,100397.22
2023-05-10T00:53:02.206Z,100396.75
2023-05-10T00:56:05.244Z,100399.09
2023-05-10T00:59:11.675Z,100405.81
2023-05-10T01:02:14.518Z,100407.72
2023-05-10T01:05:17.735Z,100404.13
2023-05-10T01:08:21.457Z,100396.53
2023-05-10T01:11:24.566Z,100404.75
2023-05-10T01:14:27.910Z,100399.19
2023-05-10T01:17:32.213Z,100399.09
2023-05-10T01:20:43.184Z,100400.28
2023-05-10T01:24:14.778Z,100410.88
2023-05-10T01:27:32.141Z,100404.50
2023-05-10T01:31:02.944Z,100400.84
2023-05-10T01:34:14.384Z,100400.78
2023-05-10T01:37:26.568Z,100406.69
2023-05-10T01:40:41.254Z,100412.03
2023-05-10T01:43:58.827Z,100408.09
2023-05-10T01:47:39.823Z,100407.66
2023-05-10T01:50:46.334Z,100404.78
2023-05-10T01:53:50.044Z,100400.78
2023-05-10T01:57:07.286Z,100398.47
2023-05-10T02:00:11.939Z,100403.91
2023-05-10T02:03:19.718Z,100396.72
2023-05-10T02:06:25.557Z,100395.12
2023-05-10T02:09:31.140Z,100399.72
2023-05-10T02:12:38.091Z,100396.53
2023-05-10T02:15:41.843Z,100391.44
2023-05-10T02:18:45.621Z,100387.31
2023-05-10T02:21:49.161Z,100383.37
2023-05-10T02:24:52.340Z,100383.37
2023-05-10T02:27:57.692Z,100387.31
2023-05-10T02:31:01.742Z,100382.09
2023-05-10T02:34:07.746Z,100388.06
2023-05-10T02:37:11.571Z,100388.31
2023-05-10T02:40:15.829Z,100384.81
2023-05-10T02:43:20.493Z,100389.91
2023-05-10T02:46:23.251Z,100387.88
2023-05-10T02:49:26.383Z,100383.50
2023-05-10T02:52:48.855Z,100382.97
2023-05-10T02:55:54.053Z,100384.88
2023-05-10T02:58:56.782Z,100381.78
2023-05-10T03:02:01.693Z,100380.13
2023-05-10T03:05:05.285Z,100385.69
2023-05-10T03:08:08.851Z,100376.13
2023-05-10T03:11:40.973Z,100375.25
2023-05-10T03:14:47.236Z,100373.66
2023-05-10T03:17:58.489Z,100369.66
2023-05-10T03:21:08.045Z,100370.31
2023-05-10T03:24:16.646Z,100367.78
2023-05-10T03:27:21.520Z,100372.84
2023-05-10T03:30:25.691Z,100367.59
2023-05-10T03:33:28.980Z,100365.13
2023-05-10T03:36:31.864Z,100367.41
2023-05-10T03:39:35.115Z,100365.84
2023-05-10T03:42:38.064Z,100370.47
2023-05-10T03:45:41.782Z,100370.56
2023-05-10T03:48:44.902Z,100360.75
2023-05-10T03:51:48.458Z,100362.06
2023-05-10T03:54:52.111Z,100364.12
2023-05-10T03:57:55.420Z,100372.09
2023-05-10T04:00:58.498Z,100365.69
2023-05-10T04:04:02.092Z,100373.28
2023-05-10T04:07:07.347Z,100363.00
2023-05-10T04:10:10.872Z,100373.84
2023-05-10T04:13:13.763Z,100377.84
2023-05-10T04:16:17.017Z,100381.03
2023-05-10T04:19:19.807Z,100371.97
2023-05-10T04:22:22.960Z,100383.69
2023-05-10T04:25:25.657Z,100379.56
2023-05-10T04:28:29.105Z,100391.62
2023-05-10T04:31:31.801Z,100384.59
2023-05-10T04:34:35.402Z,100385.78
2023-05-10T04:37:38.795Z,100389.84
2023-05-10T04:40:41.693Z,100388.28
2023-05-10T04:43:44.400Z,100390.47
2023-05-10T04:46:47.612Z,100383.84
2023-05-10T04:49:50.361Z,100365.63
2023-05-10T04:52:53.412Z,100380.84
2023-05-10T04:55:56.323Z,100399.09
2023-05-10T04:58:59.356Z,100386.78
2023-05-10T05:02:02.342Z,100389.78
2023-05-10T05:05:06.053Z,100387.38
2023-05-10T05:08:09.092Z,100383.72
2023-05-10T05:11:12.197Z,100391.91
2023-05-10T05:14:15.132Z,100385.22
2023-05-10T05:17:18.235Z,100389.16
2023-05-10T05:20:21.187Z,100389.87
2023-05-10T05:23:25.941Z,100393.22
2023-05-10T05:26:28.838Z,100391.56
2023-05-10T05:29:32.012Z,100391.97
2023-05-10T05:32:34.871Z,100392.09
2023-05-10T05:35:37.826Z,100394.28
2023-05-10T05:38:40.668Z,100379.63
2023-05-10T05:41:43.726Z,100390.31
2023-05-10T05:44:46.390Z,100392.75
2023-05-10T05:47:49.564Z,100386.59
2023-05-10T05:50:56.685Z,100391.81
2023-05-10T05:54:00.279Z,100393.00
2023-05-10T05:57:03.045Z,100392.94
2023-05-10T06:00:07.477Z,100394.50
2023-05-10T06:03:15.334Z,100395.34
2023-05-10T06:06:18.637Z,100397.03
2023-05-10T06:09:21.422Z,100399.03
2023-05-10T06:12:24.317Z,100387.75
2023-05-10T06:15:27.293Z,100402.91
2023-05-10T06:18:30.480Z,100396.59
2023-05-10T06:21:33.290Z,100374.66
2023-05-10T06:24:36.245Z,100394.62
2023-05-10T06:27:39.250Z,100389.44
2023-05-10T06:30:42.820Z,100391.03
2023-05-10T06:33:45.820Z,100384.28
2023-05-10T06:36:48.829Z,100396.66
2023-05-10T06:39:51.567Z,100390.28
2023-05-10T06:42:54.655Z,100379.47
2023-05-10T06:45:57.326Z,100394.62
2023-05-10T06:49:01.167Z,100399.44
2023-05-10T06:52:03.908Z,100412.22
2023-05-10T06:55:07.878Z,100400.66
2023-05-10T06:58:10.623Z,100403.44
2023-05-10T07:01:13.705Z,100398.16
2023-05-10T07:04:16.594Z,100402.84
2023-05-10T07:07:20.202Z,100401.94
2023-05-10T07:10:23.109Z,100397.09
2023-05-10T07:13:26.310Z,100398.62
2023-05-10T07:16:29.140Z,100393.75
2023-05-10T07:19:34.183Z,100395.03
2023-05-10T07:22:37.356Z,100392.50
2023-05-10T07:25:40.808Z,100395.47
2023-05-10T07:28:43.525Z,100398.28
2023-05-10T07:31:47.109Z,100408.56
2023-05-10T07:34:49.960Z,100399.69
2023-05-10T07:37:52.970Z,100387.09
2023-05-10T07:40:55.948Z,100399.59
2023-05-10T07:43:59.098Z,100396.47
2023-05-10T07:47:01.890Z,100402.53
2023-05-10T07:50:05.550Z,100372.03
2023-05-10T07:53:08.741Z,100393.81
2023-05-10T07:56:30.793Z,100384.72
2023-05-10T07:59:34.329Z,100386.94
2023-05-10T08:02:37.711Z,100384.12
2023-05-10T08:05:40.843Z,100381.91
2023-05-10T08:08:43.799Z,100384.28
2023-05-10T08:11:46.954Z,100383.81
2023-05-10T08:14:49.615Z,100382.47
2023-05-10T08:17:53.291Z,100385.78
2023-05-10T08:20:56.414Z,100386.50
2023-05-10T08:23:59.469Z,100387.50
2023-05-10T08:27:02.445Z,100382.63
2023-05-10T08:30:07.198Z,100388.81
2023-05-10T08:33:10.055Z,100383.88
2023-05-10T08:36:15.688Z,100377.94
2023-05-10T08:39:29.344Z,100382.66
2023-05-10T08:42:39.005Z,100392.19
2023-05-10T08:45:46.489Z,100387.62
2023-05-10T08:48:51.538Z,100396.66
2023-05-10T08:51:57.861Z,100394.00
2023-05-10T08:55:01.157Z,100403.91
2023-05-10T08:58:05.625Z,100413.78
2023-05-10T09:01:09.961Z,100402.13
2023-05-10T09:04:14.445Z,100374.72
2023-05-10T09:07:18.421Z,100413.19
2023-05-10T09:10:22.049Z,100400.47
2023-05-10T09:13:26.014Z,100396.03
2023-05-10T09:16:28.698Z,100391.06
2023-05-10T09:19:31.851Z,100397.56
2023-05-10T09:22:36.335Z,100404.00
2023-05-10T09:25:42.836Z,100408.19
2023-05-10T09:28:57.329Z,100398.50
2023-05-10T09:32:00.359Z,100384.44
2023-05-10T09:35:16.724Z,100400.91
2023-05-10T09:38:20.198Z,100396.31
2023-05-10T09:41:25.213Z,100400.28
2023-05-10T09:44:29.054Z,100395.53
2023-05-10T09:47:38.563Z,100395.28
2023-05-10T09:50:43.032Z,100394.56
2023-05-10T09:53:46.050Z,100394.31
2023-05-10T09:56:48.994Z,100390.09
2023-05-10T09:59:51.988Z,100398.69
2023-05-10T10:03:01.837Z,100389.66
2023-05-10T10:06:18.881Z,100390.16
2023-05-10T10:09:30.218Z,100372.09
2023-05-10T10:12:34.139Z,100376.44
2023-05-10T10:15:37.067Z,100375.19
2023-05-10T10:18:40.405Z,100395.91
2023-05-10T10:21:44.000Z,100386.37
2023-05-10T10:24:47.316Z,100397.41
2023-05-10T10:27:53.588Z,100380.09
2023-05-10T10:31:02.819Z,100371.19
2023-05-10T10:34:09.852Z,100358.69
2023-05-10T10:37:13.674Z,100373.19
2023-05-10T10:40:35.331Z,100363.72
2023-05-10T10:43:38.375Z,100353.44
2023-05-10T10:47:24.319Z,100356.38
2023-05-10T10:50:28.392Z,100360.25
2023-05-10T10:53:32.423Z,100369.37
2023-05-10T10:56:37.174Z,100365.97
2023-05-10T10:59:47.873Z,100356.97
2023-05-10T11:03:03.969Z,100355.00
2023-05-10T11:06:07.173Z,100339.03
2023-05-10T11:09:13.556Z,100346.63
2023-05-10T11:12:16.359Z,100336.03
2023-05-10T11:15:19.515Z,100333.47
2023-05-10T11:18:26.919Z,100322.94
2023-05-10T11:21:32.114Z,100334.19
2023-05-10T11:24:35.059Z,100342.25
2023-05-10T11:27:39.286Z,100336.00
2023-05-10T11:30:44.814Z,100323.94
2023-05-10T11:33:53.176Z,100311.06
2023-05-10T11:36:56.776Z,100310.91
2023-05-10T11:39:59.851Z,100317.50
2023-05-10T11:43:03.194Z,100316.16
2023-05-10T11:46:11.858Z,100313.00
2023-05-10T11:49:15.017Z,100310.44
2023-05-10T11:52:20.117Z,100299.13
2023-05-10T11:55:23.522Z,100310.06
2023-05-10T11:58:26.476Z,100295.72
2023-05-10T12:01:30.482Z,100303.62
2023-05-10T12:04:33.726Z,100315.25
2023-05-10T12:07:36.796Z,100295.16
2023-05-10T12:10:40.016Z,100305.44
2023-05-10T12:13:44.411Z,100292.94
2023-05-10T12:16:49.131Z,100293.06
2023-05-10T12:19:51.897Z,100285.72
2023-05-10T12:22:59.022Z,100287.28
2023-05-10T12:26:07.376Z,100282.84
2023-05-10T12:29:18.319Z,100281.75
2023-05-10T12:32:21.528Z,100286.66
2023-05-10T12:35:25.278Z,100289.56
2023-05-10T12:38:35.439Z,100290.09
2023-05-10T12:41:39.657Z,100280.22
2023-05-10T12:44:43.565Z,100278.63
2023-05-10T12:47:46.592Z,100275.25
2023-05-10T12:50:49.734Z,100274.78
2023-05-10T12:53:53.304Z,100269.19
2023-05-10T12:56:56.374Z,100265.03
2023-05-10T12:59:59.569Z,100269.81
2023-05-10T13:03:02.302Z,100261.22
2023-05-10T13:06:05.674Z,100252.59
2023-05-10T13:09:09.009Z,100247.37
2023-05-10T13:12:12.806Z,100247.47
2023-05-10T13:15:15.664Z,100244.66
2023-05-10T13:18:19.067Z,100249.25
2023-05-10T13:21:21.968Z,100254.09
2023-05-10T13:24:25.086Z,100253.91
2023-05-10T13:27:28.102Z,100247.81
2023-05-10T13:30:34.499Z,100247.03
2023-05-10T13:33:37.152Z,100239.91
2023-05-10T13:36:40.437Z,100230.63
2023-05-10T13:39:43.196Z,100230.28
2023-05-10T13:42:46.554Z,100224.84
2023-05-10T13:45:49.579Z,100230.47
2023-05-10T13:48:52.540Z,100244.91
2023-05-10T13:51:55.100Z,100231.78
2023-05-10T13:54:58.426Z,100230.13
2023-05-10T13:58:01.378Z,100236.50
2023-05-10T14:01:05.899Z,100232.84
2023-05-10T14:04:11.622Z,100220.19
2023-05-10T14:07:14.291Z,100218.28
2023-05-10T14:10:17.526Z,100209.31
2023-05-10T14:13:20.140Z,100217.88
2023-05-10T14:16:23.137Z,100214.00
2023-05-10T14:19:26.127Z,100203.44
2023-05-10T14:22:29.274Z,100204.31
2023-05-10T14:25:32.050Z,100205.47
2023-05-10T14:28:35.224Z,100199.91
2023-05-10T14:31:37.838Z,100199.72
2023-05-10T14:34:40.964Z,100200.28
2023-05-10T14:37:43.968Z,100189.34
2023-05-10T14:40:46.872Z,100192.63
2023-05-10T14:43:49.669Z,100183.97
2023-05-10T14:46:52.974Z,100190.50
2023-05-10T14:49:55.548Z,100182.25
2023-05-10T14:52:59.507Z,100183.53
2023-05-10T14:56:05.091Z,100190.00
2023-05-10T14:59:08.303Z,100187.19
2023-05-10T15:02:11.484Z,100190.72
2023-05-10T15:05:15.690Z,100187.69
2023-05-10T15:08:19.144Z,100181.12
2023-05-10T15:11:22.671Z,100179.63
2023-05-10T15:14:25.441Z,100184.22
2023-05-10T15:17:28.497Z,100180.19
2023-05-10T15:20:31.254Z,100189.66
2023-05-10T15:23:34.229Z,100183.00
2023-05-10T15:26:37.052Z,100180.09
2023-05-10T15:29:39.865Z,100177.97
2023-05-10T15:32:42.545Z,100190.81
2023-05-10T15:35:45.625Z,100183.88
2023-05-10T15:38:48.279Z,100197.63
2023-05-10T15:41:52.283Z,100194.69
2023-05-10T15:44:54.830Z,100188.78
2023-05-10T15:47:59.027Z,100181.22
2023-05-10T15:51:01.759Z,100178.50
2023-05-10T15:54:08.285Z,100177.72
2023-05-10T15:57:11.242Z,100185.50
2023-05-10T16:00:14.782Z,100188.94
2023-05-10T16:03:17.368Z,100184.84
2023-05-10T16:06:20.576Z,100173.56
2023-05-10T16:09:23.621Z,100178.53
2023-05-10T16:12:26.608Z,100183.19
2023-05-10T16:15:29.491Z,100182.38
2023-05-10T16:18:32.889Z,100179.44
2023-05-10T16:21:36.010Z,100182.41
2023-05-10T16:24:39.084Z,100178.59
2023-05-10T16:27:41.786Z,100184.03
2023-05-10T16:30:44.942Z,100182.56
2023-05-10T16:33:47.637Z,100177.78
2023-05-10T16:36:51.429Z,100181.00
2023-05-10T16:39:54.062Z,100181.03
2023-05-10T16:42:57.250Z,100187.50
2023-05-10T16:46:00.017Z,100186.81
2023-05-10T16:49:03.407Z,100188.41
2023-05-10T16:52:06.106Z,100193.25
2023-05-10T16:55:09.289Z,100188.63
2023-05-10T16:58:12.115Z,100193.84
2023-05-10T17:01:16.064Z,100195.50
2023-05-10T17:04:18.975Z,100188.19
2023-05-10T17:07:24.716Z,100201.78
2023-05-10T17:10:28.975Z,100211.66
2023-05-10T17:13:32.295Z,100212.41
2023-05-10T17:16:35.842Z,100207.00
2023-05-10T17:19:39.369Z,100216.37
2023-05-10T17:22:42.183Z,100220.47
2023-05-10T17:25:45.298Z,100212.97
2023-05-10T17:28:47.979Z,100215.84
2023-05-10T17:31:51.100Z,100221.16
2023-05-10T17:34:53.828Z,100218.91
2023-05-10T17:37:57.648Z,100230.22
2023-05-10T17:41:00.296Z,100226.66
2023-05-10T17:44:03.347Z,100236.41
2023-05-10T17:47:06.678Z,100239.28
2023-05-10T17:50:10.565Z,100241.41
2023-05-10T17:53:13.250Z,100242.31
2023-05-10T17:56:16.554Z,100239.63
2023-05-10T17:59:19.452Z,100244.94
2023-05-10T18:02:22.557Z,100255.03
2023-05-10T18:05:25.986Z,100254.69
2023-05-10T18:08:30.735Z,100253.16
2023-05-10T18:11:36.708Z,100251.22
2023-05-10T18:14:41.404Z,100260.09
2023-05-10T18:17:44.910Z,100255.34
2023-05-10T18:20:49.551Z,100251.84
2023-05-10T18:23:52.648Z,100258.28
2023-05-10T18:26:55.698Z,100263.94
2023-05-10T18:30:02.713Z,100258.78
2023-05-10T18:33:05.404Z,100271.22
2023-05-10T18:36:09.140Z,100270.84
2023-05-10T18:39:12.324Z,100274.03
2023-05-10T18:42:15.751Z,100274.47
2023-05-10T18:45:18.900Z,100271.28
2023-05-10T18:48:22.907Z,100280.03
2023-05-10T18:51:26.770Z,100276.06
2023-05-10T18:54:30.384Z,100276.03
2023-05-10T18:57:33.448Z,100288.00
2023-05-10T19:00:37.136Z,100282.03
2023-05-10T19:03:40.964Z,100295.19
2023-05-10T19:06:44.372Z,100285.63
2023-05-10T19:09:48.046Z,100294.03
2023-05-10T19:12:51.541Z,100296.44
2023-05-10T19:16:11.630Z,100309.62
2023-05-10T19:19:15.119Z,100295.25
2023-05-10T19:22:31.966Z,100299.25
2023-05-10T19:25:46.126Z,100301.66
2023-05-10T19:28:52.353Z,100298.47
2023-05-10T19:31:55.757Z,100307.66
2023-05-10T19:34:59.740Z,100306.44
2023-05-10T19:38:02.757Z,100308.06
2023-05-10T19:41:06.261Z,100308.84
2023-05-10T19:44:09.789Z,100299.28
2023-05-10T19:47:13.098Z,100298.88
2023-05-10T19:50:18.882Z,100298.88
2023-05-10T19:53:21.924Z,100300.09
2023-05-10T19:56:27.390Z,100291.72
2023-05-10T19:59:30.132Z,100303.25
2023-05-10T20:02:33.903Z,100302.47
2023-05-10T20:05:37.281Z,100298.47
2023-05-10T20:08:40.637Z,100300.06
2023-05-10T20:11:43.619Z,100304.84
2023-05-10T20:14:47.509Z,100304.87
2023-05-10T20:17:53.518Z,100304.84
2023-05-10T20:20:59.713Z,100299.69
2023-05-10T20:24:03.210Z,100306.47
2023-05-10T20:27:07.776Z,100306.47
2023-05-10T20:30:11.776Z,100304.87
2023-05-10T20:33:18.125Z,100309.66
2023-05-10T20:36:21.490Z,100310.06
2023-05-10T20:39:24.664Z,100315.25
2023-05-10T20:42:28.266Z,100316.06
2023-05-10T20:45:31.128Z,100315.63
2023-05-10T20:48:34.377Z,100315.63
2023-05-10T20:51:37.170Z,100310.88
2023-05-10T20:54:40.471Z,100314.47
2023-05-10T20:57:43.149Z,100312.06
2023-05-10T21:00:46.510Z,100310.47
2023-05-10T21:03:49.153Z,100301.69
2023-05-10T21:06:53.142Z,100303.69
2023-05-10T21:09:55.892Z,100311.66
2023-05-10T21:12:59.471Z,100302.50
2023-05-10T21:16:02.228Z,100302.06
2023-05-10T21:19:07.527Z,100306.47
2023-05-10T21:22:10.575Z,100309.66
2023-05-10T21:25:14.221Z,100306.47
2023-05-10T21:28:17.112Z,100307.25
2023-05-10T21:31:20.414Z,100303.69
2023-05-10T21:34:23.117Z,100303.69
2023-05-10T21:37:26.134Z,100304.87
2023-05-10T21:40:29.178Z,100304.47
2023-05-10T21:43:32.286Z,100309.28
2023-05-10T21:46:34.873Z,100294.50
2023-05-10T21:49:38.407Z,100301.69
2023-05-10T21:52:41.134Z,100304.06
2023-05-10T21:55:44.236Z,100311.66
2023-05-10T21:58:47.442Z,100304.84
2023-05-10T22:01:50.575Z,100302.06
2023-05-10T22:04:53.670Z,100304.06
2023-05-10T22:07:56.440Z,100310.84
2023-05-10T22:10:59.507Z,100306.44
2023-05-10T22:14:02.236Z,100297.25
2023-05-10T22:17:05.409Z,100307.63
2023-05-10T22:20:09.228Z,100298.44
2023-05-10T22:23:12.694Z,100304.81
2023-05-10T22:26:15.288Z,100291.63
2023-05-10T22:29:18.293Z,100296.00
2023-05-10T22:32:20.851Z,100301.22
2023-05-10T22:35:23.817Z,100308.03
2023-05-10T22:38:26.400Z,100302.44
2023-05-10T22:41:29.734Z,100304.03
2023-05-10T22:44:32.364Z,100301.66
2023-05-10T22:47:35.567Z,100293.25
2023-05-10T22:50:38.462Z,100298.03
2023-05-10T22:53:41.666Z,100300.44
2023-05-10T22:56:44.569Z,100298.03
2023-05-10T22:59:49.051Z,100298.06
2023-05-10T23:02:51.784Z,100301.22
2023-05-10T23:05:54.826Z,100298.44
2023-05-10T23:08:57.577Z,100306.81
2023-05-10T23:12:00.719Z,100309.22
2023-05-10T23:15:03.907Z,100308.03
2023-05-10T23:18:06.966Z,100312.00
2023-05-10T23:21:10.223Z,100313.62
2023-05-10T23:24:13.737Z,100302.00
2023-05-10T23:27:17.452Z,100313.62
2023-05-10T23:30:20.688Z,100317.59
2023-05-10T23:33:23.983Z,100320.81
2023-05-10T23:36:27.056Z,100322.78
2023-05-10T23:39:29.784Z,100322.00
2023-05-10T23:42:33.090Z,100308.03
2023-05-10T23:45:35.819Z,100317.63
2023-05-10T23:48:39.330Z,100326.41
2023-05-10T23:51:42.021Z,100329.59
2023-05-10T23:54:46.015Z,100328.41
2023-05-10T23:57:48.849Z,100332.78
